Terminal Aerodrome Forecast
Issued by NWS Albuquerque, NM

Home | Current Version | Previous Version | Text Only | Print | Product List | Glossary On
Versions: 1 2 3 4 5 6 7 8 9 10 11 12 13 14 15 16 17 18 19
028
FTUS45 KABQ 291120
TAFABQ
TAF
KABQ 291120Z 2912/3012 23008KT P6SM VCSH FEW010 BKN070
     FM291400 24008KT P6SM FEW050 SCT090
     FM291600 26012G19KT P6SM SCT060 BKN100
     FM292000 27015G25KT P6SM VCSH BKN060
     FM300300 28010KT P6SM VCSH BKN080=

USA.gov is the U.S. government's official web portal to all federal, state and local government web resources and services.